createdAt,value
2019-02-25T00:01:07.411Z,102827.15
2019-02-25T00:02:33.114Z,102825.55
2019-02-25T00:03:39.006Z,102821.11
2019-02-25T00:04:45.397Z,102821.91
2019-02-25T00:05:51.863Z,102818.81
2019-02-25T00:06:57.861Z,102818.81
2019-02-25T00:08:05.046Z,102822.13
2019-02-25T00:09:10.759Z,102824.23
2019-02-25T00:10:17.756Z,102820.02
2019-02-25T00:11:24.032Z,102820.93
2019-02-25T00:12:30.320Z,102819.22
2019-02-25T00:13:36.602Z,102819.40
2019-02-25T00:14:43.203Z,102815.28
2019-02-25T00:15:49.097Z,102808.66
2019-02-25T00:16:55.922Z,102804.92
2019-02-25T00:18:02.808Z,102800.41
2019-02-25T00:19:08.572Z,102802.11
2019-02-25T00:20:15.878Z,102810.77
2019-02-25T00:21:23.309Z,102806.77
2019-02-25T00:22:29.593Z,102807.86
2019-02-25T00:23:36.535Z,102809.09
2019-02-25T00:24:42.915Z,102810.17
2019-02-25T00:25:49.054Z,102810.39
2019-02-25T00:26:55.024Z,102811.81
2019-02-25T00:28:02.688Z,102809.20
2019-02-25T00:29:09.819Z,102809.99
2019-02-25T00:30:17.709Z,102815.63
2019-02-25T00:31:23.604Z,102822.78
2019-02-25T00:32:30.342Z,102816.64
2019-02-25T00:33:37.019Z,102808.20
2019-02-25T00:34:42.988Z,102808.09
2019-02-25T00:35:49.688Z,102809.72
2019-02-25T00:36:56.314Z,102810.41
2019-02-25T00:38:02.857Z,102806.30
2019-02-25T00:39:09.875Z,102801.34
2019-02-25T00:40:16.820Z,102805.08
2019-02-25T00:41:23.430Z,102801.55
2019-02-25T00:42:30.360Z,102802.39
2019-02-25T00:43:37.105Z,102803.07
2019-02-25T00:44:43.141Z,102797.73
2019-02-25T00:45:50.640Z,102790.09
2019-02-25T00:46:57.976Z,102779.43
2019-02-25T00:48:04.187Z,102776.40
2019-02-25T00:49:11.550Z,102784.77
2019-02-25T00:50:21.769Z,102789.30
2019-02-25T00:51:27.622Z,102794.02
2019-02-25T00:52:34.467Z,102792.63
2019-02-25T00:53:40.814Z,102787.56
2019-02-25T00:54:47.418Z,102787.09
2019-02-25T00:55:54.620Z,102786.18
2019-02-25T00:57:01.221Z,102786.97
2019-02-25T00:58:08.100Z,102780.83
2019-02-25T00:59:14.770Z,102788.28
2019-02-25T01:00:24.743Z,102781.86
2019-02-25T01:01:31.070Z,102784.27
2019-02-25T01:02:37.557Z,102783.86
2019-02-25T01:03:43.468Z,102784.55
2019-02-25T01:04:49.905Z,102781.86
2019-02-25T01:05:56.795Z,102781.34
2019-02-25T01:07:03.529Z,102782.66
2019-02-25T01:08:10.462Z,102783.16
2019-02-25T01:09:16.749Z,102788.08
2019-02-25T01:10:23.160Z,102782.84
2019-02-25T01:11:28.880Z,102778.92
2019-02-25T01:12:35.771Z,102771.98
2019-02-25T01:13:41.989Z,102770.86
2019-02-25T01:14:49.022Z,102772.49
2019-02-25T01:15:56.338Z,102771.08
2019-02-25T01:17:02.175Z,102773.18
2019-02-25T01:18:08.233Z,102768.66
2019-02-25T01:19:15.451Z,102766.84
2019-02-25T01:20:21.347Z,102764.84
2019-02-25T01:21:28.197Z,102769.16
2019-02-25T01:22:35.028Z,102770.39
2019-02-25T01:23:41.667Z,102762.54
2019-02-25T01:24:48.848Z,102770.78
2019-02-25T01:25:54.874Z,102766.67
2019-02-25T01:27:01.500Z,102768.45
2019-02-25T01:28:08.356Z,102762.13
2019-02-25T01:29:14.038Z,102768.55
2019-02-25T01:30:21.837Z,102767.56
2019-02-25T01:31:28.946Z,102765.23
2019-02-25T01:32:34.656Z,102770.45
2019-02-25T01:33:40.907Z,102770.89
2019-02-25T01:34:47.263Z,102772.20
2019-02-25T01:35:53.502Z,102778.11
2019-02-25T01:37:01.096Z,102777.59
2019-02-25T01:38:07.349Z,102777.20
2019-02-25T01:39:14.923Z,102771.57
2019-02-25T01:40:21.769Z,102766.73
2019-02-25T01:41:28.629Z,102771.89
2019-02-25T01:42:36.129Z,102764.44
2019-02-25T01:43:42.579Z,102760.01
2019-02-25T01:44:48.535Z,102766.83
2019-02-25T01:45:55.311Z,102770.75
2019-02-25T01:47:03.175Z,102763.73
2019-02-25T01:48:09.245Z,102755.06
2019-02-25T01:49:15.797Z,102762.51
2019-02-25T01:50:22.749Z,102765.13
2019-02-25T01:51:28.722Z,102769.36
2019-02-25T01:52:35.074Z,102764.14
2019-02-25T01:53:40.957Z,102765.44
2019-02-25T01:54:47.139Z,102758.98
2019-02-25T01:55:53.914Z,102760.73
2019-02-25T01:57:00.295Z,102761.52
2019-02-25T01:58:06.209Z,102759.30
2019-02-25T01:59:13.526Z,102760.50
2019-02-25T02:00:20.288Z,102764.81
2019-02-25T02:01:27.389Z,102769.97
2019-02-25T02:02:35.161Z,102773.17
2019-02-25T02:03:41.001Z,102765.44
2019-02-25T02:04:48.595Z,102769.13
2019-02-25T02:05:55.423Z,102771.16
2019-02-25T02:07:01.382Z,102767.55
2019-02-25T02:08:08.342Z,102772.78
2019-02-25T02:09:16.372Z,102774.77
2019-02-25T02:10:22.393Z,102772.47
2019-02-25T02:11:28.951Z,102767.24
2019-02-25T02:12:36.085Z,102767.12
2019-02-25T02:13:41.957Z,102772.75
2019-02-25T02:14:48.376Z,102770.53
2019-02-25T02:15:55.489Z,102769.11
2019-02-25T02:17:01.536Z,102771.73
2019-02-25T02:18:08.908Z,102774.26
2019-02-25T02:19:15.990Z,102779.88
2019-02-25T02:20:22.352Z,102779.88
2019-02-25T02:21:30.228Z,102775.37
2019-02-25T02:22:36.181Z,102779.57
2019-02-25T02:23:43.023Z,102774.55
2019-02-25T02:24:50.323Z,102777.04
2019-02-25T02:25:56.734Z,102783.97
2019-02-25T02:27:03.571Z,102785.98
2019-02-25T02:28:10.731Z,102786.27
2019-02-25T02:29:16.465Z,102792.01
2019-02-25T02:30:24.209Z,102789.27
2019-02-25T02:31:30.668Z,102789.91
2019-02-25T02:32:37.696Z,102783.38
2019-02-25T02:33:46.558Z,102783.77
2019-02-25T02:34:52.973Z,102782.75
2019-02-25T02:35:59.466Z,102783.45
2019-02-25T02:37:05.663Z,102784.17
2019-02-25T02:38:11.528Z,102779.73
2019-02-25T02:39:17.946Z,102780.25
2019-02-25T02:40:25.139Z,102785.35
2019-02-25T02:41:32.398Z,102778.42
2019-02-25T02:42:39.383Z,102781.95
2019-02-25T02:43:45.546Z,102782.63
2019-02-25T02:44:55.015Z,102783.61
2019-02-25T02:46:09.558Z,102780.92
2019-02-25T02:47:39.576Z,102780.80
2019-02-25T02:48:56.700Z,102778.38
2019-02-25T02:50:06.687Z,102787.41
2019-02-25T02:51:13.109Z,102787.41
2019-02-25T02:52:19.489Z,102788.72
2019-02-25T02:53:26.618Z,102782.19
2019-02-25T02:54:33.141Z,102783.80
2019-02-25T02:55:39.568Z,102780.55
2019-02-25T02:56:45.619Z,102791.72
2019-02-25T02:57:52.298Z,102796.81
2019-02-25T02:58:59.443Z,102798.52
2019-02-25T03:00:09.924Z,102795.42
2019-02-25T03:01:16.803Z,102795.82
2019-02-25T03:02:23.665Z,102794.00
2019-02-25T03:03:29.707Z,102785.84
2019-02-25T03:04:38.515Z,102789.37
2019-02-25T03:05:46.462Z,102794.87
2019-02-25T03:06:52.451Z,102800.09
2019-02-25T03:07:58.948Z,102789.16
2019-02-25T03:09:07.407Z,102781.48
2019-02-25T03:10:20.007Z,102776.77
2019-02-25T03:11:27.387Z,102779.95
2019-02-25T03:12:33.549Z,102786.56
2019-02-25T03:13:40.708Z,102773.78
2019-02-25T03:14:47.294Z,102779.70
2019-02-25T03:15:53.700Z,102774.76
2019-02-25T03:17:00.325Z,102761.63
2019-02-25T03:18:08.134Z,102773.37
2019-02-25T03:19:14.555Z,102768.94
2019-02-25T03:20:21.584Z,102768.42
2019-02-25T03:21:28.366Z,102768.33
2019-02-25T03:22:34.112Z,102764.90
2019-02-25T03:23:40.775Z,102752.67
2019-02-25T03:24:47.520Z,102756.34
2019-02-25T03:25:53.479Z,102758.44
2019-02-25T03:27:00.006Z,102755.23
2019-02-25T03:28:07.126Z,102757.72
2019-02-25T03:29:12.755Z,102753.80
2019-02-25T03:30:22.435Z,102758.15
2019-02-25T03:31:30.041Z,102769.46
2019-02-25T03:32:36.770Z,102758.63
2019-02-25T03:33:43.628Z,102755.53
2019-02-25T03:34:49.878Z,102763.77
2019-02-25T03:35:56.243Z,102763.77
2019-02-25T03:37:03.136Z,102762.85
2019-02-25T03:38:09.041Z,102759.94
2019-02-25T03:39:15.324Z,102759.54
2019-02-25T03:40:25.155Z,102768.41
2019-02-25T03:41:31.660Z,102771.01
2019-02-25T03:42:38.402Z,102773.83
2019-02-25T03:43:45.130Z,102772.52
2019-02-25T03:44:51.360Z,102771.34
2019-02-25T03:45:59.491Z,102761.89
2019-02-25T03:47:06.260Z,102755.77
2019-02-25T03:48:12.099Z,102753.06
2019-02-25T03:49:19.305Z,102743.30
2019-02-25T03:50:26.151Z,102739.57
2019-02-25T03:51:32.870Z,102739.64
2019-02-25T03:52:41.373Z,102743.47
2019-02-25T03:53:47.131Z,102750.27
2019-02-25T03:54:53.438Z,102746.66
2019-02-25T03:55:59.762Z,102750.33
2019-02-25T03:57:05.987Z,102749.55
2019-02-25T03:58:12.947Z,102744.84
2019-02-25T03:59:20.541Z,102739.23
2019-02-25T04:00:26.986Z,102746.53
2019-02-25T04:01:33.553Z,102754.76
2019-02-25T04:02:40.341Z,102749.15
2019-02-25T04:03:46.397Z,102761.02
2019-02-25T04:04:52.970Z,102754.48
2019-02-25T04:05:59.310Z,102755.36
2019-02-25T04:07:05.417Z,102759.91
2019-02-25T04:08:11.647Z,102766.05
2019-02-25T04:09:20.031Z,102767.74
2019-02-25T04:10:26.048Z,102765.86
2019-02-25T04:11:32.184Z,102770.89
2019-02-25T04:12:39.335Z,102764.48
2019-02-25T04:13:45.424Z,102771.01
2019-02-25T04:14:52.517Z,102763.18
2019-02-25T04:16:01.744Z,102753.65
2019-02-25T04:17:07.768Z,102751.13
2019-02-25T04:18:15.312Z,102749.42
2019-02-25T04:19:23.344Z,102745.52
2019-02-25T04:20:29.894Z,102745.39
2019-02-25T04:21:36.808Z,102749.03
2019-02-25T04:22:43.296Z,102748.64
2019-02-25T04:23:50.350Z,102743.81
2019-02-25T04:24:56.495Z,102749.03
2019-02-25T04:26:03.933Z,102741.99
2019-02-25T04:27:11.340Z,102746.42
2019-02-25T04:28:18.832Z,102753.46
2019-02-25T04:29:24.648Z,102747.27
2019-02-25T04:30:31.781Z,102744.73
2019-02-25T04:31:40.204Z,102751.11
2019-02-25T04:32:46.244Z,102748.31
2019-02-25T04:33:53.631Z,102760.26
2019-02-25T04:35:01.717Z,102764.69
2019-02-25T04:36:09.446Z,102776.13
2019-02-25T04:37:16.163Z,102780.16
2019-02-25T04:38:22.425Z,102780.68
2019-02-25T04:39:29.041Z,102782.07
2019-02-25T04:40:35.791Z,102784.80
2019-02-25T04:41:41.789Z,102785.71
2019-02-25T04:42:49.331Z,102784.22
2019-02-25T04:43:56.514Z,102788.53
2019-02-25T04:45:02.707Z,102791.92
2019-02-25T04:46:10.509Z,102789.75
2019-02-25T04:47:16.925Z,102795.77
2019-02-25T04:48:23.403Z,102801.77
2019-02-25T04:49:30.690Z,102798.56
2019-02-25T04:50:36.745Z,102799.75
2019-02-25T04:51:42.690Z,102803.94
2019-02-25T04:52:49.822Z,102801.12
2019-02-25T04:53:56.317Z,102799.09
2019-02-25T04:55:02.571Z,102797.79
2019-02-25T04:56:09.061Z,102806.80
2019-02-25T04:57:15.369Z,102800.86
2019-02-25T04:58:21.411Z,102804.56
2019-02-25T04:59:27.760Z,102804.88
2019-02-25T05:00:34.676Z,102808.55
2019-02-25T05:01:40.910Z,102809.25
2019-02-25T05:02:48.575Z,102802.33
2019-02-25T05:03:55.252Z,102807.43
2019-02-25T05:05:01.695Z,102812.64
2019-02-25T05:06:09.507Z,102815.86
2019-02-25T05:07:15.451Z,102821.59
2019-02-25T05:08:22.036Z,102817.29
2019-02-25T05:09:29.285Z,102816.63
2019-02-25T05:10:35.986Z,102815.41
2019-02-25T05:11:42.608Z,102821.53
2019-02-25T05:12:55.538Z,102814.73
2019-02-25T05:14:01.589Z,102819.77
2019-02-25T05:15:10.538Z,102820.49
2019-02-25T05:16:17.644Z,102822.73
2019-02-25T05:17:24.064Z,102819.54
2019-02-25T05:18:30.704Z,102822.98
2019-02-25T05:19:37.237Z,102828.14
2019-02-25T05:20:43.407Z,102822.03
2019-02-25T05:21:50.102Z,102824.56
2019-02-25T05:22:56.682Z,102822.59
2019-02-25T05:24:04.783Z,102815.47
2019-02-25T05:25:13.410Z,102818.68
2019-02-25T05:26:19.167Z,102816.51
2019-02-25T05:27:25.954Z,102816.00
2019-02-25T05:28:33.675Z,102824.16
2019-02-25T05:29:39.648Z,102820.56
2019-02-25T05:30:46.290Z,102809.31
2019-02-25T05:31:53.289Z,102805.42
2019-02-25T05:32:59.241Z,102811.37
2019-02-25T05:34:06.269Z,102804.72
2019-02-25T05:35:14.025Z,102801.42
2019-02-25T05:36:20.350Z,102802.13
2019-02-25T05:37:27.384Z,102804.66
2019-02-25T05:38:34.092Z,102802.36
2019-02-25T05:39:40.122Z,102802.16
2019-02-25T05:40:48.164Z,102807.77
2019-02-25T05:41:55.216Z,102816.05
2019-02-25T05:43:01.987Z,102816.16
2019-02-25T05:44:09.207Z,102812.55
2019-02-25T05:45:16.024Z,102803.58
2019-02-25T05:46:22.004Z,102795.92
2019-02-25T05:47:30.084Z,102794.62
2019-02-25T05:48:36.189Z,102791.60
2019-02-25T05:49:42.958Z,102793.61
2019-02-25T05:50:49.650Z,102787.58
2019-02-25T05:51:55.990Z,102791.19
2019-02-25T05:53:03.272Z,102794.54
2019-02-25T05:54:10.176Z,102798.14
2019-02-25T05:55:18.321Z,102803.28
2019-02-25T05:56:25.059Z,102795.55
2019-02-25T05:57:31.660Z,102793.23
2019-02-25T05:58:39.038Z,102800.86
2019-02-25T05:59:46.309Z,102788.98
2019-02-25T06:00:52.449Z,102791.88
2019-02-25T06:01:58.563Z,102789.47
2019-02-25T06:03:05.423Z,102793.59
2019-02-25T06:04:11.413Z,102792.69
2019-02-25T06:05:18.053Z,102786.91
2019-02-25T06:06:24.874Z,102794.66
2019-02-25T06:07:30.671Z,102800.19
2019-02-25T06:08:37.487Z,102794.27
2019-02-25T06:09:45.092Z,102799.68
2019-02-25T06:10:50.777Z,102799.47
2019-02-25T06:11:56.826Z,102803.39
2019-02-25T06:13:03.645Z,102800.88
2019-02-25T06:14:09.738Z,102802.38
2019-02-25T06:15:22.279Z,102801.58
2019-02-25T06:16:29.356Z,102794.30
2019-02-25T06:17:37.748Z,102793.50
2019-02-25T06:18:43.946Z,102796.70
2019-02-25T06:19:51.121Z,102794.30
2019-02-25T06:20:57.201Z,102790.84
2019-02-25T06:22:04.871Z,102793.16
2019-02-25T06:23:11.822Z,102798.98
2019-02-25T06:24:18.339Z,102793.86
2019-02-25T06:25:25.524Z,102794.88
2019-02-25T06:26:31.421Z,102793.74
2019-02-25T06:27:38.495Z,102796.94
2019-02-25T06:28:45.212Z,102802.40
2019-02-25T06:29:51.798Z,102799.45
2019-02-25T06:30:58.399Z,102793.08
2019-02-25T06:32:04.763Z,102795.80
2019-02-25T06:33:10.781Z,102800.02
2019-02-25T06:34:19.251Z,102803.22
2019-02-25T06:35:26.391Z,102789.70
2019-02-25T06:36:34.267Z,102796.03
2019-02-25T06:37:41.124Z,102797.45
2019-02-25T06:38:47.165Z,102793.80
2019-02-25T06:39:54.744Z,102789.64
2019-02-25T06:41:01.217Z,102783.59
2019-02-25T06:42:08.455Z,102785.98
2019-02-25T06:43:15.593Z,102788.31
2019-02-25T06:44:21.993Z,102792.83
2019-02-25T06:45:35.318Z,102788.99
2019-02-25T06:46:43.395Z,102788.16
2019-02-25T06:47:50.403Z,102786.55
2019-02-25T06:48:58.000Z,102794.98
2019-02-25T06:50:05.607Z,102799.43
2019-02-25T06:51:14.238Z,102787.62
2019-02-25T06:52:20.519Z,102794.69
2019-02-25T06:53:30.090Z,102790.02
2019-02-25T06:54:36.782Z,102788.81
2019-02-25T06:55:44.392Z,102788.41
2019-02-25T06:56:50.882Z,102783.84
2019-02-25T06:57:57.522Z,102786.87
2019-02-25T06:59:04.678Z,102783.55
2019-02-25T07:00:21.460Z,102788.05
2019-02-25T07:01:28.588Z,102781.50
2019-02-25T07:02:35.410Z,102779.14
2019-02-25T07:03:44.264Z,102778.41
2019-02-25T07:04:59.202Z,102780.39
2019-02-25T07:06:08.667Z,102776.66
2019-02-25T07:07:19.535Z,102779.45
2019-02-25T07:08:26.181Z,102780.94
2019-02-25T07:09:50.625Z,102782.61
2019-02-25T07:12:23.414Z,102774.41
2019-02-25T07:13:34.874Z,102777.03
2019-02-25T07:14:43.794Z,102778.55
2019-02-25T07:15:59.522Z,102773.77
2019-02-25T07:17:13.806Z,102782.55
2019-02-25T07:18:36.304Z,102783.96
2019-02-25T07:19:47.822Z,102776.76
2019-02-25T07:20:55.611Z,102782.58
2019-02-25T07:22:13.761Z,102778.98
2019-02-25T07:23:33.609Z,102772.41
2019-02-25T07:24:55.070Z,102775.14
2019-02-25T07:26:03.312Z,102782.67
2019-02-25T07:27:11.935Z,102777.12
2019-02-25T07:28:36.705Z,102780.05
2019-02-25T07:30:01.088Z,102773.99
2019-02-25T07:31:25.203Z,102771.70
2019-02-25T07:32:36.922Z,102769.81
2019-02-25T07:33:46.932Z,102766.45
2019-02-25T07:34:58.521Z,102766.28
2019-02-25T07:36:09.397Z,102761.44
2019-02-25T07:37:34.122Z,102764.47
2019-02-25T07:38:51.949Z,102755.37
2019-02-25T07:40:13.972Z,102755.55
2019-02-25T07:41:23.783Z,102755.34
2019-02-25T07:42:51.318Z,102756.81
2019-02-25T07:44:09.390Z,102756.57
2019-02-25T07:45:34.563Z,102748.19
2019-02-25T07:46:48.940Z,102742.88
2019-02-25T07:47:57.113Z,102751.56
2019-02-25T07:49:11.982Z,102746.47
2019-02-25T07:50:27.848Z,102746.57
2019-02-25T07:51:39.408Z,102751.48
2019-02-25T07:52:49.982Z,102754.20
2019-02-25T07:53:58.817Z,102750.27
2019-02-25T07:55:14.969Z,102747.30
2019-02-25T07:56:28.544Z,102748.14
2019-02-25T07:57:44.835Z,102748.61
2019-02-25T07:59:16.436Z,102750.83
2019-02-25T08:00:51.169Z,102745.78
2019-02-25T08:02:18.179Z,102742.09
2019-02-25T08:03:31.160Z,102740.69
2019-02-25T08:04:43.242Z,102742.83
2019-02-25T08:06:02.964Z,102739.80
2019-02-25T08:07:17.271Z,102741.77
2019-02-25T08:08:33.519Z,102734.89
2019-02-25T08:09:43.237Z,102736.20
2019-02-25T08:10:51.838Z,102736.70
2019-02-25T08:11:59.679Z,102737.61
2019-02-25T08:13:07.840Z,102747.52
2019-02-25T08:14:27.110Z,102747.36
2019-02-25T08:15:34.873Z,102739.89
2019-02-25T08:16:50.430Z,102751.15
2019-02-25T08:18:14.434Z,102747.02
2019-02-25T08:19:22.826Z,102752.77
2019-02-25T08:20:32.030Z,102736.05
2019-02-25T08:21:45.590Z,102734.14
2019-02-25T08:23:09.726Z,102729.64
2019-02-25T08:24:17.228Z,102732.27
2019-02-25T08:25:30.336Z,102732.61
2019-02-25T08:26:40.852Z,102729.48
2019-02-25T08:27:50.980Z,102729.32
2019-02-25T08:29:05.302Z,102720.61
2019-02-25T08:30:27.020Z,102727.48
2019-02-25T08:31:44.793Z,102730.97
2019-02-25T08:32:56.059Z,102726.77
2019-02-25T08:34:18.288Z,102726.52
2019-02-25T08:35:45.039Z,102728.55
2019-02-25T08:37:12.333Z,102731.86
2019-02-25T08:38:22.980Z,102730.55
2019-02-25T08:39:32.053Z,102728.38
2019-02-25T08:40:50.553Z,102734.70
2019-02-25T08:41:58.580Z,102728.97
2019-02-25T08:43:12.653Z,102734.80
2019-02-25T08:44:32.639Z,102737.33
2019-02-25T08:45:41.382Z,102733.48
2019-02-25T08:46:52.293Z,102740.39
2019-02-25T08:48:02.778Z,102739.78
2019-02-25T08:49:13.024Z,102735.77
2019-02-25T08:50:18.840Z,102738.72
2019-02-25T08:51:24.897Z,102745.39
2019-02-25T08:52:30.512Z,102736.27
2019-02-25T08:53:37.027Z,102748.31
2019-02-25T08:54:44.273Z,102744.72
2019-02-25T08:55:50.761Z,102743.26
2019-02-25T08:56:56.574Z,102746.80
2019-02-25T08:58:02.613Z,102748.77
2019-02-25T08:59:08.673Z,102753.43
2019-02-25T09:00:15.814Z,102745.54
2019-02-25T09:01:22.248Z,102745.37
2019-02-25T09:02:29.172Z,102740.20
2019-02-25T09:03:36.013Z,102732.53
2019-02-25T09:04:42.073Z,102738.80
2019-02-25T09:05:48.213Z,102743.91
2019-02-25T09:06:54.895Z,102743.96
2019-02-25T09:08:01.363Z,102750.48
2019-02-25T09:09:07.813Z,102746.28
2019-02-25T09:10:15.720Z,102745.37
2019-02-25T09:11:22.194Z,102750.38
2019-02-25T09:12:30.033Z,102744.13
2019-02-25T09:13:36.476Z,102746.73
2019-02-25T09:14:42.653Z,102745.69
2019-02-25T09:15:48.894Z,102744.46
2019-02-25T09:16:55.373Z,102749.46
2019-02-25T09:17:59.808Z,102745.57
2019-02-25T09:19:05.640Z,102741.56
2019-02-25T09:20:11.413Z,102746.09
2019-02-25T09:21:17.182Z,102747.73
2019-02-25T09:22:22.880Z,102742.70
2019-02-25T09:23:28.574Z,102743.28
2019-02-25T09:24:34.954Z,102743.47
2019-02-25T09:25:42.254Z,102744.11
2019-02-25T09:26:48.213Z,102747.39
2019-02-25T09:27:54.516Z,102737.63
2019-02-25T09:29:00.530Z,102737.22
2019-02-25T09:30:16.129Z,102747.00
2019-02-25T09:31:23.000Z,102749.22
2019-02-25T09:32:30.530Z,102743.37
2019-02-25T09:33:36.676Z,102738.36
2019-02-25T09:34:43.232Z,102735.23
2019-02-25T09:35:49.552Z,102738.60
2019-02-25T09:36:55.534Z,102734.48
2019-02-25T09:38:01.819Z,102736.47
2019-02-25T09:39:12.073Z,102735.88
2019-02-25T09:40:20.253Z,102737.45
2019-02-25T09:41:29.997Z,102733.86
2019-02-25T09:42:34.412Z,102739.83
2019-02-25T09:43:41.863Z,102736.47
2019-02-25T09:44:48.375Z,102732.17
2019-02-25T09:45:55.022Z,102733.34
2019-02-25T09:47:00.894Z,102735.08
2019-02-25T09:48:06.933Z,102724.05
2019-02-25T09:49:12.888Z,102733.48
2019-02-25T09:50:21.149Z,102733.08
2019-02-25T09:51:26.922Z,102735.21
2019-02-25T09:52:32.893Z,102737.84
2019-02-25T09:53:38.913Z,102733.44
2019-02-25T09:54:44.853Z,102735.21
2019-02-25T09:55:50.793Z,102731.45
2019-02-25T09:56:56.681Z,102734.89
2019-02-25T09:58:02.942Z,102741.38
2019-02-25T09:59:09.120Z,102744.52
2019-02-25T10:00:18.935Z,102738.11
2019-02-25T10:01:26.581Z,102745.76
2019-02-25T10:02:32.733Z,102736.29
2019-02-25T10:03:38.773Z,102738.20
2019-02-25T10:04:45.520Z,102734.56
2019-02-25T10:05:51.476Z,102737.94
2019-02-25T10:07:02.274Z,102738.70
2019-02-25T10:08:06.014Z,102731.86
2019-02-25T10:09:12.698Z,102725.60
2019-02-25T10:10:20.301Z,102723.55
2019-02-25T10:11:26.973Z,102720.75
2019-02-25T10:12:32.773Z,102716.80
2019-02-25T10:13:40.033Z,102719.72
2019-02-25T10:14:46.514Z,102718.05
2019-02-25T10:15:52.454Z,102714.55
2019-02-25T10:16:58.376Z,102715.24
2019-02-25T10:18:04.273Z,102717.55
2019-02-25T10:19:10.233Z,102709.02
2019-02-25T10:20:16.070Z,102711.06
2019-02-25T10:21:21.793Z,102703.75
2019-02-25T10:22:27.700Z,102707.11
2019-02-25T10:23:34.213Z,102704.48
2019-02-25T10:24:40.034Z,102701.44
2019-02-25T10:25:46.453Z,102698.11
2019-02-25T10:26:52.921Z,102705.47
2019-02-25T10:27:58.574Z,102700.73
2019-02-25T10:29:04.833Z,102701.77
2019-02-25T10:30:17.675Z,102702.67
2019-02-25T10:31:23.460Z,102702.41
2019-02-25T10:32:30.238Z,102700.69
2019-02-25T10:33:36.414Z,102700.14
2019-02-25T10:34:42.494Z,102695.56
2019-02-25T10:35:48.654Z,102705.83
2019-02-25T10:36:54.513Z,102701.27
2019-02-25T10:38:03.034Z,102702.41
2019-02-25T10:39:13.049Z,102707.91
2019-02-25T10:40:23.982Z,102704.14
2019-02-25T10:41:27.919Z,102701.73
2019-02-25T10:42:35.622Z,102707.64
2019-02-25T10:43:42.121Z,102692.29
2019-02-25T10:44:50.201Z,102695.72
2019-02-25T10:45:57.133Z,102685.52
2019-02-25T10:47:04.441Z,102695.91
2019-02-25T10:48:10.393Z,102694.88
2019-02-25T10:49:16.135Z,102696.91
2019-02-25T10:50:21.999Z,102692.05
2019-02-25T10:51:27.745Z,102691.63
2019-02-25T10:52:33.453Z,102690.07
2019-02-25T10:53:39.779Z,102693.91
2019-02-25T10:54:45.479Z,102694.97
2019-02-25T10:56:05.042Z,102696.48
2019-02-25T10:57:10.974Z,102701.20
2019-02-25T10:58:17.474Z,102689.20
2019-02-25T10:59:23.601Z,102687.47
2019-02-25T11:00:29.414Z,102684.96
2019-02-25T11:01:37.541Z,102680.92
2019-02-25T11:02:44.452Z,102682.24
2019-02-25T11:03:52.640Z,102686.28
2019-02-25T11:05:00.054Z,102696.62
2019-02-25T11:06:06.193Z,102705.07
2019-02-25T11:07:13.053Z,102705.64
2019-02-25T11:08:20.580Z,102705.44
2019-02-25T11:09:37.874Z,102708.62
2019-02-25T11:10:50.781Z,102697.98
2019-02-25T11:12:00.058Z,102699.38
2019-02-25T11:13:06.155Z,102700.62
2019-02-25T11:14:12.441Z,102699.33
2019-02-25T11:15:18.479Z,102694.12
2019-02-25T11:16:25.135Z,102682.86
2019-02-25T11:17:31.974Z,102677.37
2019-02-25T11:18:37.834Z,102671.73
2019-02-25T11:19:43.653Z,102671.05
2019-02-25T11:20:50.440Z,102667.75
2019-02-25T11:21:56.181Z,102664.77
2019-02-25T11:23:02.134Z,102657.19
2019-02-25T11:24:07.914Z,102654.16
2019-02-25T11:25:15.577Z,102653.92
2019-02-25T11:26:23.774Z,102655.25
2019-02-25T11:27:31.331Z,102648.64
2019-02-25T11:28:39.215Z,102650.30
2019-02-25T11:29:46.229Z,102653.55
2019-02-25T11:30:53.773Z,102650.09
2019-02-25T11:32:00.560Z,102649.08
2019-02-25T11:33:06.760Z,102646.02
2019-02-25T11:34:13.254Z,102645.47
2019-02-25T11:35:20.021Z,102651.28
2019-02-25T11:36:26.821Z,102646.11
2019-02-25T11:37:32.715Z,102641.81
2019-02-25T11:38:38.483Z,102640.00
2019-02-25T11:39:44.761Z,102641.13
2019-02-25T11:40:51.021Z,102640.23
2019-02-25T11:41:57.941Z,102637.37
2019-02-25T11:43:03.794Z,102625.56
2019-02-25T11:44:09.527Z,102632.88
2019-02-25T11:45:22.439Z,102642.53
2019-02-25T11:46:28.274Z,102633.81
2019-02-25T11:47:35.054Z,102628.23
2019-02-25T11:48:41.633Z,102632.77
2019-02-25T11:49:47.894Z,102629.45
2019-02-25T11:50:53.571Z,102622.84
2019-02-25T11:51:59.334Z,102623.67
2019-02-25T11:53:05.674Z,102617.98
2019-02-25T11:54:11.662Z,102606.41
2019-02-25T11:55:17.994Z,102602.25
2019-02-25T11:56:24.325Z,102585.92
2019-02-25T11:57:30.322Z,102576.53
2019-02-25T11:58:36.038Z,102563.87
2019-02-25T11:59:42.083Z,102574.98
2019-02-25T12:00:47.844Z,102565.48
2019-02-25T12:01:53.882Z,102570.42
2019-02-25T12:02:59.616Z,102573.17
2019-02-25T12:04:05.774Z,102559.14
2019-02-25T12:05:12.475Z,102560.33
2019-02-25T12:06:19.413Z,102562.17
2019-02-25T12:07:25.962Z,102566.20
2019-02-25T12:08:32.336Z,102561.94
2019-02-25T12:09:38.914Z,102562.02
2019-02-25T12:10:45.155Z,102556.66
2019-02-25T12:11:50.861Z,102548.39
2019-02-25T12:12:56.715Z,102554.16
2019-02-25T12:14:03.061Z,102555.16
2019-02-25T12:15:27.562Z,102556.02
2019-02-25T12:16:35.137Z,102552.30
2019-02-25T12:17:40.874Z,102558.11
2019-02-25T12:18:47.576Z,102559.09
2019-02-25T12:19:54.115Z,102558.59
2019-02-25T12:20:59.981Z,102558.36
2019-02-25T12:22:05.795Z,102556.08
2019-02-25T12:23:11.814Z,102556.49
2019-02-25T12:24:17.529Z,102553.67
2019-02-25T12:25:25.191Z,102561.22
2019-02-25T12:26:30.901Z,102578.80
2019-02-25T12:27:37.142Z,102579.83
2019-02-25T12:28:43.742Z,102567.77
2019-02-25T12:29:51.057Z,102567.77
2019-02-25T12:30:56.936Z,102574.78
2019-02-25T12:32:03.195Z,102584.09
2019-02-25T12:33:10.834Z,102576.70
2019-02-25T12:34:18.303Z,102577.57
2019-02-25T12:35:23.980Z,102580.52
2019-02-25T12:36:30.354Z,102570.48
2019-02-25T12:37:37.261Z,102573.61
2019-02-25T12:38:43.376Z,102571.08
2019-02-25T12:39:49.401Z,102571.42
2019-02-25T12:40:55.781Z,102577.67
2019-02-25T12:42:01.705Z,102570.59
2019-02-25T12:43:08.504Z,102560.09
2019-02-25T12:44:14.334Z,102562.43
2019-02-25T12:45:22.255Z,102557.56
2019-02-25T12:46:28.673Z,102548.63
2019-02-25T12:47:34.634Z,102547.56
2019-02-25T12:48:41.186Z,102541.89
2019-02-25T12:49:47.222Z,102546.14
2019-02-25T12:50:53.055Z,102541.14
2019-02-25T12:51:58.921Z,102539.30
2019-02-25T12:53:04.962Z,102538.49
2019-02-25T12:54:12.035Z,102531.47
2019-02-25T12:55:19.543Z,102532.69
2019-02-25T12:56:25.373Z,102538.56
2019-02-25T12:57:31.854Z,102535.92